Time;durP1;ratioP1;P1;durP2;ratioP2;P2;SDS_P1;SDS_P2;PMS_P1;PMS_P2;Temp;Humidity;BMP_temperature;BMP_pressure;BME280_temperature;BME280_humidity;BME280_pressure;Samples;Min_cycle;Max_cycle;Signal;HPM_P1;HPM_P2
2024/04/14 00:00:43;;;;;;;3.90;2.13;;;18.30;99.90;;;;;;5491432;26;20451;-66
2024/04/14 00:03:15;;;;;;;2.30;2.10;;;18.20;99.90;;;;;;5491554;26;20451;-66
2024/04/14 00:05:41;;;;;;;2.60;2.40;;;18.20;99.90;;;;;;5491553;26;20451;-66
2024/04/14 00:08:09;;;;;;;2.60;2.07;;;18.20;99.90;;;;;;5491360;26;20500;-66
2024/04/14 00:10:35;;;;;;;2.30;1.90;;;18.20;99.90;;;;;;5491282;26;20679;-66
2024/04/14 00:13:03;;;;;;;1.80;1.70;;;18.20;99.90;;;;;;5491195;26;20455;-66
2024/04/14 00:15:28;;;;;;;2.13;1.90;;;18.20;99.90;;;;;;5491423;26;20214;-66
2024/04/14 00:17:57;;;;;;;3.30;2.53;;;18.20;99.90;;;;;;5491336;26;20498;-66
2024/04/14 00:20:26;;;;;;;2.27;2.07;;;18.20;99.90;;;;;;5491285;26;20747;-66
2024/04/14 00:22:54;;;;;;;1.97;1.87;;;18.20;99.90;;;;;;5491152;26;20451;-66
2024/04/14 00:25:20;;;;;;;2.10;2.00;;;18.20;99.90;;;;;;5491113;26;20496;-66
2024/04/14 00:27:48;;;;;;;1.93;1.83;;;18.10;99.90;;;;;;5491113;26;20798;-66
2024/04/14 00:30:14;;;;;;;2.70;2.20;;;18.10;99.90;;;;;;5490900;26;20218;-66
2024/04/14 00:32:42;;;;;;;3.10;2.20;;;18.10;99.90;;;;;;5491056;26;20662;-66
2024/04/14 00:35:08;;;;;;;2.00;1.63;;;18.10;99.90;;;;;;5491055;26;20447;-66
2024/04/14 00:37:39;;;;;;;4.60;2.30;;;18.10;99.90;;;;;;5490921;26;20491;-66
2024/04/14 00:40:05;;;;;;;2.50;1.80;;;18.10;99.90;;;;;;5491006;26;20732;-66
2024/04/14 00:42:33;;;;;;;2.20;2.10;;;18.10;99.90;;;;;;5490730;26;20795;-66
2024/04/14 00:44:59;;;;;;;3.10;2.40;;;18.10;99.90;;;;;;5490888;26;20439;-66
2024/04/14 00:47:27;;;;;;;2.20;2.10;;;18.10;99.90;;;;;;5491179;26;21091;-66
2024/04/14 00:49:53;;;;;;;2.43;2.23;;;18.10;99.90;;;;;;5490728;26;20229;-66
2024/04/14 00:52:21;;;;;;;2.07;1.93;;;18.00;99.90;;;;;;5490736;26;20455;-66
2024/04/14 00:54:50;;;;;;;3.10;2.30;;;18.10;99.90;;;;;;5490634;26;20705;-66
2024/04/14 00:57:19;;;;;;;2.00;1.90;;;18.00;99.90;;;;;;5490752;26;20455;-66
2024/04/14 00:59:44;;;;;;;2.60;2.30;;;18.10;99.90;;;;;;5490037;26;20447;-66
2024/04/14 01:02:13;;;;;;;4.97;2.57;;;18.00;99.90;;;;;;5490485;26;20502;-66
2024/04/14 01:04:38;;;;;;;4.13;2.27;;;17.90;99.90;;;;;;5490571;26;20214;-66
2024/04/14 01:07:07;;;;;;;3.30;2.30;;;17.90;99.90;;;;;;5490451;26;20525;-66
2024/04/14 01:09:32;;;;;;;2.10;2.00;;;17.90;99.90;;;;;;5490549;26;20206;-66
2024/04/14 01:12:04;;;;;;;2.43;2.23;;;18.00;99.90;;;;;;5490422;26;20828;-66
2024/04/14 01:14:29;;;;;;;3.53;1.90;;;18.00;99.90;;;;;;5490540;26;20264;-66
2024/04/14 01:16:57;;;;;;;2.63;2.20;;;18.00;99.90;;;;;;5490388;26;20438;-66
2024/04/14 01:19:23;;;;;;;2.53;2.33;;;17.90;99.90;;;;;;5490311;26;20294;-66
2024/04/14 01:21:51;;;;;;;2.60;2.40;;;17.90;99.90;;;;;;5490382;26;20458;-66
2024/04/14 01:24:17;;;;;;;3.30;2.63;;;17.90;99.90;;;;;;5490381;26;20222;-66
2024/04/14 01:26:48;;;;;;;2.80;2.60;;;18.00;99.90;;;;;;5490120;26;21059;-66
2024/04/14 01:29:13;;;;;;;2.93;2.73;;;17.90;99.90;;;;;;5490750;26;20210;-66
2024/04/14 01:31:41;;;;;;;3.23;2.70;;;17.80;99.90;;;;;;5489963;26;20495;-66
2024/04/14 01:34:07;;;;;;;3.57;2.87;;;17.90;99.90;;;;;;5490286;26;20570;-66
2024/04/14 01:36:35;;;;;;;2.60;2.40;;;17.80;99.90;;;;;;5490011;26;20443;-66
2024/04/14 01:39:01;;;;;;;3.77;2.33;;;17.80;99.90;;;;;;5490078;26;20232;-66
2024/04/14 01:41:29;;;;;;;2.60;2.33;;;17.80;99.90;;;;;;5490366;26;20455;-66
2024/04/14 01:43:57;;;;;;;2.00;1.90;;;17.80;99.90;;;;;;5489973;26;20245;-66
2024/04/14 01:46:25;;;;;;;3.10;2.30;;;17.80;99.90;;;;;;5489832;26;20797;-66
2024/04/14 01:48:51;;;;;;;3.60;2.57;;;17.80;99.90;;;;;;5489988;26;20447;-66
2024/04/14 01:51:19;;;;;;;3.47;2.60;;;17.80;99.90;;;;;;5489825;26;21018;-66
2024/04/14 01:53:44;;;;;;;4.70;2.73;;;17.70;99.90;;;;;;5489797;26;20210;-66
2024/04/14 01:56:13;;;;;;;2.60;2.40;;;17.70;99.90;;;;;;5489824;26;20470;-66
2024/04/14 01:58:38;;;;;;;2.47;2.33;;;17.80;99.90;;;;;;5489748;26;20236;-66
2024/04/14 02:01:09;;;;;;;2.13;1.97;;;17.80;99.90;;;;;;5489553;26;20462;-66
2024/04/14 02:03:35;;;;;;;2.70;2.50;;;17.80;99.90;;;;;;5489726;26;20210;-66
2024/04/14 02:06:03;;;;;;;3.47;2.60;;;17.80;99.90;;;;;;5489572;26;20451;-66
2024/04/14 02:08:29;;;;;;;2.50;2.30;;;17.80;99.90;;;;;;5489662;26;20236;-66
2024/04/14 02:10:58;;;;;;;3.47;2.37;;;17.70;99.90;;;;;;5489478;26;20450;-66
2024/04/14 02:13:23;;;;;;;3.97;2.33;;;17.70;99.90;;;;;;5487798;26;20269;-66
2024/04/14 02:15:51;;;;;;;2.40;2.30;;;17.70;99.90;;;;;;5489508;26;20447;-66
2024/04/14 02:18:19;;;;;;;3.10;2.53;;;17.70;99.90;;;;;;5489442;26;20214;-66
2024/04/14 02:20:48;;;;;;;2.33;2.23;;;17.70;99.90;;;;;;5489333;26;20502;-66
2024/04/14 02:23:13;;;;;;;2.47;2.27;;;17.70;99.90;;;;;;5489386;26;20982;-66
2024/04/14 02:25:41;;;;;;;2.50;2.30;;;17.70;99.90;;;;;;5489378;26;20451;-66
2024/04/14 02:28:07;;;;;;;2.70;2.50;;;17.70;99.90;;;;;;5489232;26;20209;-66
2024/04/14 02:30:35;;;;;;;3.30;3.10;;;17.60;99.90;;;;;;5489432;26;20799;-66
2024/04/14 02:33:01;;;;;;;2.30;2.20;;;17.70;99.90;;;;;;5489205;26;20206;-66
2024/04/14 02:35:31;;;;;;;2.63;2.30;;;17.60;99.90;;;;;;5489130;26;21034;-66
2024/04/14 02:37:57;;;;;;;4.20;2.60;;;17.60;99.90;;;;;;5489155;26;20214;-66
2024/04/14 02:40:25;;;;;;;4.03;2.60;;;17.50;99.90;;;;;;5489104;26;20503;-66
2024/04/14 02:42:50;;;;;;;3.63;2.73;;;17.50;99.90;;;;;;5489104;26;20213;-66
2024/04/14 02:45:19;;;;;;;3.13;2.93;;;17.50;99.90;;;;;;5489556;26;20499;-66
2024/04/14 02:47:44;;;;;;;2.93;2.70;;;17.50;99.90;;;;;;5488936;26;20253;-66
2024/04/14 02:50:12;;;;;;;3.03;2.83;;;17.60;99.90;;;;;;5488904;26;20447;-66
2024/04/14 02:52:41;;;;;;;2.97;2.77;;;17.60;99.90;;;;;;5488835;26;20206;-66
2024/04/14 02:55:09;;;;;;;3.20;2.90;;;17.50;99.90;;;;;;5488756;26;20997;-66
2024/04/14 02:57:34;;;;;;;3.17;2.97;;;17.50;99.90;;;;;;5488693;26;20503;-66
2024/04/14 03:00:02;;;;;;;2.90;2.70;;;17.40;99.90;;;;;;5488939;26;20545;-66
2024/04/14 03:02:28;;;;;;;4.10;2.60;;;17.50;99.90;;;;;;5488640;26;20214;-66
2024/04/14 03:04:56;;;;;;;2.47;2.23;;;17.50;99.90;;;;;;5488740;26;20831;-66
2024/04/14 03:07:22;;;;;;;3.00;2.80;;;17.50;99.90;;;;;;5488571;26;20302;-66
2024/04/14 03:09:55;;;;;;;2.90;2.70;;;17.60;99.90;;;;;;5488405;26;20974;-66
2024/04/14 03:12:20;;;;;;;3.40;2.93;;;17.60;99.90;;;;;;5488596;26;20206;-66
2024/04/14 03:14:48;;;;;;;3.17;2.97;;;17.60;99.90;;;;;;5488352;26;20528;-66
2024/04/14 03:17:14;;;;;;;3.13;2.80;;;17.60;99.90;;;;;;5488405;26;20206;-66
2024/04/14 03:19:42;;;;;;;2.33;2.13;;;17.70;99.90;;;;;;5488484;26;20455;-66
2024/04/14 03:22:08;;;;;;;2.80;2.40;;;17.70;99.90;;;;;;5488271;26;20206;-66
2024/04/14 03:24:36;;;;;;;2.73;2.53;;;17.70;99.90;;;;;;5491089;26;20486;-66
2024/04/14 03:27:04;;;;;;;3.17;2.90;;;17.70;99.90;;;;;;5491918;26;20210;-66
2024/04/14 03:29:32;;;;;;;3.07;2.80;;;17.70;99.90;;;;;;5491945;26;20618;-66
2024/04/14 03:31:58;;;;;;;2.50;2.30;;;17.70;99.90;;;;;;5491788;26;20451;-66
2024/04/14 03:34:26;;;;;;;2.93;2.70;;;17.70;99.90;;;;;;5491945;26;20493;-66
2024/04/14 03:36:54;;;;;;;5.40;2.30;;;17.70;99.90;;;;;;5491743;26;20673;-66
2024/04/14 03:39:22;;;;;;;2.90;2.70;;;17.60;99.90;;;;;;5491909;26;20844;-66
2024/04/14 03:41:50;;;;;;;3.00;2.67;;;17.60;99.90;;;;;;5491773;26;20558;-66
2024/04/14 03:44:21;;;;;;;2.97;2.67;;;17.60;99.90;;;;;;5491651;26;20442;-66
2024/04/14 03:46:49;;;;;;;2.40;2.30;;;17.60;99.90;;;;;;5491681;26;20499;-66
2024/04/14 03:49:17;;;;;;;2.60;2.40;;;17.60;99.90;;;;;;5491554;26;20443;-66
2024/04/14 03:51:43;;;;;;;2.67;2.47;;;17.60;99.90;;;;;;5491504;26;20818;-66
2024/04/14 03:54:11;;;;;;;4.50;2.53;;;17.70;99.90;;;;;;5491441;26;20447;-66
2024/04/14 03:56:36;;;;;;;2.83;2.63;;;17.70;99.90;;;;;;5491676;26;20249;-66
2024/04/14 03:59:05;;;;;;;3.30;3.00;;;17.70;99.90;;;;;;5491663;26;20459;-66
2024/04/14 04:01:33;;;;;;;2.53;2.33;;;17.70;99.90;;;;;;5491436;26;20206;-66
2024/04/14 04:04:01;;;;;;;2.30;2.20;;;17.70;99.90;;;;;;5491447;26;20518;-66
2024/04/14 04:06:27;;;;;;;2.50;2.40;;;17.60;99.90;;;;;;5491424;26;20435;-66
2024/04/14 04:08:55;;;;;;;3.00;2.83;;;17.60;99.90;;;;;;5491327;26;20803;-66
2024/04/14 04:11:23;;;;;;;3.30;2.90;;;17.60;99.90;;;;;;5491262;26;20214;-66
2024/04/14 04:13:48;;;;;;;3.10;2.80;;;17.60;99.90;;;;;;5491338;26;20483;-66
2024/04/14 04:16:17;;;;;;;3.13;2.40;;;17.70;99.90;;;;;;5491239;26;20447;-66
2024/04/14 04:18:45;;;;;;;3.60;2.17;;;17.70;99.90;;;;;;5491175;26;20291;-66
2024/04/14 04:21:13;;;;;;;2.47;2.37;;;17.60;99.90;;;;;;5491234;26;20846;-66
2024/04/14 04:23:39;;;;;;;2.70;2.50;;;17.60;99.90;;;;;;5491322;26;20454;-66
2024/04/14 04:26:07;;;;;;;2.60;2.40;;;17.60;99.90;;;;;;5491273;26;21048;-66
2024/04/14 04:28:33;;;;;;;4.30;2.47;;;17.60;99.90;;;;;;5491140;26;20244;-66
2024/04/14 04:31:12;;;;;;;2.90;2.70;;;17.60;99.90;;;;;;5490815;26;20451;-66
2024/04/14 04:33:39;;;;;;;2.67;2.47;;;17.60;99.90;;;;;;5491116;26;20498;-66
2024/04/14 04:36:11;;;;;;;2.93;2.70;;;17.50;99.90;;;;;;5489551;26;20451;-66
2024/04/14 04:38:37;;;;;;;2.87;2.67;;;17.50;99.90;;;;;;5491583;26;20522;-66
2024/04/14 04:41:07;;;;;;;3.00;2.80;;;17.50;99.90;;;;;;5491373;26;20747;-66
2024/04/14 04:43:32;;;;;;;3.23;3.00;;;17.50;99.90;;;;;;5491457;26;20218;-66
2024/04/14 04:46:01;;;;;;;3.47;3.17;;;17.50;99.90;;;;;;5491430;26;20455;-66
2024/04/14 04:48:26;;;;;;;3.47;3.20;;;17.50;99.90;;;;;;5490891;26;20206;-67
2024/04/14 04:50:55;;;;;;;2.90;2.70;;;17.50;99.90;;;;;;5490752;26;20447;-66
2024/04/14 04:53:23;;;;;;;3.23;2.93;;;17.50;99.90;;;;;;5490759;26;20212;-66
2024/04/14 04:55:52;;;;;;;3.07;2.77;;;17.60;99.90;;;;;;5490777;26;21002;-66
2024/04/14 04:58:17;;;;;;;3.10;2.80;;;17.60;99.90;;;;;;5490887;26;20479;-66
2024/04/14 05:00:53;;;;;;;3.33;3.10;;;17.70;99.90;;;;;;5490718;26;20568;-66
2024/04/14 05:03:19;;;;;;;4.90;2.83;;;17.70;99.90;;;;;;5490688;26;20514;-66
2024/04/14 05:05:56;;;;;;;3.23;2.93;;;17.60;99.90;;;;;;5490570;26;20555;-66
2024/04/14 05:08:26;;;;;;;3.33;3.13;;;17.60;99.90;;;;;;5490594;26;20209;-66
2024/04/14 05:10:54;;;;;;;5.23;3.53;;;17.60;99.90;;;;;;5490905;26;20455;-66
2024/04/14 05:13:20;;;;;;;3.93;3.40;;;17.50;99.90;;;;;;5490486;26;20486;-66
2024/04/14 05:15:48;;;;;;;3.53;3.33;;;17.50;99.90;;;;;;5490386;26;20454;-66
2024/04/14 05:18:14;;;;;;;6.03;4.13;;;17.40;99.90;;;;;;5490445;26;20450;-66
2024/04/14 05:20:43;;;;;;;4.63;4.07;;;17.40;99.90;;;;;;5490279;26;20442;-66
2024/04/14 05:23:08;;;;;;;4.07;3.77;;;17.40;99.90;;;;;;5490271;26;20236;-66
2024/04/14 05:25:40;;;;;;;10.13;3.50;;;17.40;99.90;;;;;;5490235;26;20462;-66
2024/04/14 05:28:06;;;;;;;3.30;3.10;;;17.30;99.90;;;;;;5490302;26;20213;-67
2024/04/14 05:30:35;;;;;;;3.40;3.20;;;17.30;99.90;;;;;;5490295;26;21018;-66
2024/04/14 05:33:00;;;;;;;2.90;2.70;;;17.30;99.90;;;;;;5490205;26;20498;-66
2024/04/14 05:35:28;;;;;;;7.30;3.83;;;17.30;99.90;;;;;;5490117;26;20810;-66
2024/04/14 05:37:54;;;;;;;11.60;2.77;;;17.30;99.90;;;;;;5490135;26;20569;-66
2024/04/14 05:40:22;;;;;;;4.53;2.57;;;17.30;99.90;;;;;;5490426;26;20451;-66
2024/04/14 05:42:50;;;;;;;2.63;2.43;;;17.40;99.90;;;;;;5489974;26;20674;-66
2024/04/14 05:45:25;;;;;;;2.77;2.40;;;17.50;99.90;;;;;;5489915;26;20443;-66
2024/04/14 05:47:50;;;;;;;3.13;2.10;;;17.40;99.90;;;;;;5489579;26;20458;-66
2024/04/14 05:50:18;;;;;;;3.40;2.50;;;17.50;99.90;;;;;;5489729;26;21026;-66
2024/04/14 05:52:44;;;;;;;3.40;2.77;;;17.60;99.90;;;;;;5489919;26;20214;-66
2024/04/14 05:55:12;;;;;;;3.00;1.93;;;17.70;99.90;;;;;;5489658;26;20863;-66
2024/04/14 05:57:37;;;;;;;2.67;2.23;;;17.80;99.90;;;;;;5489796;26;20213;-66
2024/04/14 06:00:09;;;;;;;3.53;2.03;;;17.90;99.90;;;;;;5490078;26;20447;-66
2024/04/14 06:02:35;;;;;;;3.93;2.10;;;17.90;99.90;;;;;;5490128;26;20272;-66
2024/04/14 06:05:04;;;;;;;6.33;2.27;;;18.00;99.90;;;;;;5489714;26;20451;-66
2024/04/14 06:07:30;;;;;;;2.57;2.30;;;17.90;99.90;;;;;;5489660;26;20249;-67
2024/04/14 06:09:58;;;;;;;3.80;2.23;;;18.00;99.90;;;;;;5489622;26;21017;-66
2024/04/14 06:12:23;;;;;;;2.90;2.03;;;18.00;99.90;;;;;;5489469;26;20244;-66
2024/04/14 06:14:52;;;;;;;4.40;2.33;;;18.00;99.90;;;;;;5489208;26;20446;-66
2024/04/14 06:17:20;;;;;;;4.53;2.53;;;17.70;99.90;;;;;;5489420;26;20221;-66
2024/04/14 06:19:48;;;;;;;5.23;2.37;;;17.70;99.90;;;;;;5489613;26;20451;-66
2024/04/14 06:22:13;;;;;;;3.77;2.40;;;17.70;99.90;;;;;;5489320;26;20451;-66
2024/04/14 06:24:41;;;;;;;4.07;2.53;;;17.60;99.90;;;;;;5489228;26;20494;-66
2024/04/14 06:27:07;;;;;;;2.73;2.43;;;17.70;99.90;;;;;;5489221;26;20218;-66
2024/04/14 06:29:35;;;;;;;3.13;2.30;;;17.60;99.90;;;;;;5489213;26;20494;-66
2024/04/14 06:32:01;;;;;;;3.10;2.20;;;17.60;99.90;;;;;;5489078;26;20210;-66
2024/04/14 06:34:31;;;;;;;4.27;2.47;;;17.60;99.90;;;;;;5489322;26;20454;-66
2024/04/14 06:36:57;;;;;;;4.20;2.60;;;17.70;99.90;;;;;;5488964;26;20246;-66
2024/04/14 06:39:25;;;;;;;3.93;1.70;;;17.70;99.90;;;;;;5489088;26;20497;-66
2024/04/14 06:41:51;;;;;;;5.60;2.27;;;17.90;99.90;;;;;;5489127;26;20214;-66
2024/04/14 06:44:19;;;;;;;3.30;2.20;;;17.90;99.90;;;;;;5488852;26;21017;-66
2024/04/14 06:46:45;;;;;;;2.53;2.27;;;17.80;99.90;;;;;;5488816;26;20210;-66
2024/04/14 06:49:13;;;;;;;3.53;1.90;;;17.80;99.90;;;;;;5488817;26;20511;-66
2024/04/14 06:51:41;;;;;;;3.70;1.73;;;17.80;99.90;;;;;;5488701;26;20245;-66
2024/04/14 06:54:09;;;;;;;5.67;2.97;;;17.90;99.90;;;;;;5488669;26;20502;-66
2024/04/14 06:56:35;;;;;;;3.90;2.73;;;17.80;99.90;;;;;;5488700;26;20495;-66
2024/04/14 06:59:03;;;;;;;3.10;1.70;;;17.80;99.90;;;;;;5490424;26;20452;-66
2024/04/14 07:01:29;;;;;;;3.00;2.30;;;17.90;99.90;;;;;;5492346;26;20435;-66
2024/04/14 07:03:57;;;;;;;6.10;1.90;;;18.00;99.90;;;;;;5492310;26;20854;-66
2024/04/14 07:06:23;;;;;;;5.57;3.60;;;18.20;99.90;;;;;;5492303;26;20231;-66
2024/04/14 07:08:54;;;;;;;7.80;3.97;;;18.20;99.90;;;;;;5492286;26;20786;-66
2024/04/14 07:11:19;;;;;;;5.10;2.50;;;18.30;99.90;;;;;;5492134;26;20585;-66
2024/04/14 07:13:47;;;;;;;7.07;1.90;;;18.30;99.90;;;;;;5491991;26;20455;-66
2024/04/14 07:16:13;;;;;;;4.00;2.03;;;18.30;99.90;;;;;;5492069;26;20252;-66
2024/04/14 07:18:41;;;;;;;2.90;1.83;;;18.20;99.90;;;;;;5491933;26;20868;-66
2024/04/14 07:21:07;;;;;;;4.13;2.10;;;18.30;99.90;;;;;;5492008;26;20483;-66
2024/04/14 07:23:35;;;;;;;5.47;2.63;;;18.20;99.90;;;;;;5492025;26;20836;-66
2024/04/14 07:26:04;;;;;;;2.73;1.70;;;18.20;99.90;;;;;;5491915;26;20214;-67
2024/04/14 07:28:32;;;;;;;6.57;2.37;;;18.30;99.90;;;;;;5492214;26;20526;-66
2024/04/14 07:30:57;;;;;;;3.20;2.03;;;18.30;99.90;;;;;;5491814;26;20495;-66
2024/04/14 07:33:25;;;;;;;3.30;1.83;;;18.30;99.90;;;;;;5491870;26;20966;-66
2024/04/14 07:35:51;;;;;;;7.20;2.50;;;18.20;99.90;;;;;;5491785;26;20678;-66
2024/04/14 07:38:19;;;;;;;4.83;1.73;;;18.20;99.90;;;;;;5491533;26;20502;-66
2024/04/14 07:40:45;;;;;;;2.87;1.87;;;18.20;99.90;;;;;;5491628;26;20237;-66
2024/04/14 07:43:15;;;;;;;2.57;1.70;;;18.30;99.90;;;;;;5491722;26;20454;-66
2024/04/14 07:45:42;;;;;;;4.23;2.17;;;18.50;99.90;;;;;;5491545;26;20210;-66
2024/04/14 07:48:10;;;;;;;1.63;1.40;;;18.70;99.90;;;;;;5491554;26;20562;-66
2024/04/14 07:50:36;;;;;;;7.00;2.10;;;18.80;99.90;;;;;;5491506;26;20439;-66
2024/04/14 07:53:04;;;;;;;2.53;1.40;;;18.90;99.90;;;;;;5491606;26;20865;-67
2024/04/14 07:55:29;;;;;;;3.80;1.60;;;18.90;99.90;;;;;;5491536;26;20791;-66
2024/04/14 07:57:57;;;;;;;3.23;1.43;;;19.10;99.90;;;;;;5491489;26;20487;-66
2024/04/14 08:00:26;;;;;;;4.07;1.67;;;19.20;99.90;;;;;;5491480;26;20248;-66
2024/04/14 08:02:54;;;;;;;5.03;1.57;;;19.40;99.90;;;;;;5491520;26;20443;-67
2024/04/14 08:05:19;;;;;;;2.30;1.30;;;19.50;99.90;;;;;;5491463;26;20482;-67
2024/04/14 08:07:47;;;;;;;4.27;1.33;;;19.30;99.90;;;;;;5491269;26;20466;-67
2024/04/14 08:10:13;;;;;;;4.40;1.50;;;19.20;99.90;;;;;;5491293;26;20218;-67
2024/04/14 08:12:41;;;;;;;3.53;1.83;;;19.00;99.90;;;;;;5491164;26;20495;-67
2024/04/14 08:15:07;;;;;;;1.67;1.10;;;19.00;99.90;;;;;;5491127;26;20496;-67
2024/04/14 08:17:38;;;;;;;3.93;1.40;;;19.00;99.90;;;;;;5491195;26;20674;-67
2024/04/14 08:20:04;;;;;;;3.37;1.33;;;19.00;99.90;;;;;;5491164;26;20245;-66
2024/04/14 08:22:32;;;;;;;1.97;1.23;;;19.10;99.90;;;;;;5491388;26;20965;-66
2024/04/14 08:24:58;;;;;;;3.90;1.53;;;19.10;99.90;;;;;;5491117;26;20447;-66
2024/04/14 08:27:26;;;;;;;2.20;1.13;;;19.20;99.90;;;;;;5491165;26;21013;-66
2024/04/14 08:29:51;;;;;;;2.23;1.17;;;19.30;99.90;;;;;;5491084;26;20213;-67
2024/04/14 08:32:20;;;;;;;1.20;1.10;;;19.20;99.90;;;;;;5491062;26;20507;-67
2024/04/14 08:34:48;;;;;;;2.60;1.30;;;19.30;99.90;;;;;;5491006;26;20761;-66
2024/04/14 08:37:16;;;;;;;4.07;1.43;;;19.40;99.90;;;;;;5491012;26;20451;-66
2024/04/14 08:39:43;;;;;;;3.60;1.30;;;19.80;99.90;;;;;;5490826;26;20442;-67
2024/04/14 08:42:12;;;;;;;3.50;1.10;;;20.10;99.90;;;;;;5491071;26;20450;-67
2024/04/14 08:44:40;;;;;;;3.17;1.13;;;20.20;99.90;;;;;;5490887;26;20435;-67
2024/04/14 08:47:09;;;;;;;2.93;1.10;;;20.30;99.90;;;;;;5490748;26;20506;-66
2024/04/14 08:49:37;;;;;;;1.73;1.00;;;20.30;99.90;;;;;;5490816;26;20827;-66
2024/04/14 08:52:09;;;;;;;8.10;1.80;;;20.10;99.90;;;;;;5490560;26;20532;-66
2024/04/14 08:54:34;;;;;;;3.60;1.43;;;19.90;99.90;;;;;;5490710;26;20463;-67
2024/04/14 08:57:04;;;;;;;5.43;1.30;;;19.70;99.90;;;;;;5490817;26;20499;-67
2024/04/14 08:59:30;;;;;;;2.60;1.00;;;19.50;99.90;;;;;;5490698;26;20339;-67
2024/04/14 09:02:00;;;;;;;4.20;1.30;;;19.50;99.90;;;;;;5490562;26;20454;-67
2024/04/14 09:04:28;;;;;;;1.90;1.07;;;19.50;99.90;;;;;;5490610;26;20564;-67
2024/04/14 09:06:56;;;;;;;3.77;0.90;;;19.30;99.90;;;;;;5490475;26;20564;-67
2024/04/14 09:09:24;;;;;;;3.23;1.50;;;19.30;99.90;;;;;;5490391;26;20507;-67
2024/04/14 09:11:52;;;;;;;3.37;1.00;;;19.30;99.90;;;;;;5490349;26;20439;-66
2024/04/14 09:14:18;;;;;;;2.03;1.10;;;19.30;99.90;;;;;;5490377;26;20484;-67
2024/04/14 09:16:46;;;;;;;2.30;1.10;;;19.40;99.90;;;;;;5490416;26;20961;-66
2024/04/14 09:19:12;;;;;;;1.93;0.83;;;19.40;99.90;;;;;;5490491;26;20214;-67
2024/04/14 09:21:40;;;;;;;1.17;0.80;;;19.50;99.90;;;;;;5489687;26;20969;-67
2024/04/14 09:24:06;;;;;;;0.93;0.83;;;19.40;99.90;;;;;;5490285;26;20244;-66
2024/04/14 09:26:37;;;;;;;2.80;0.90;;;19.50;99.90;;;;;;5490202;26;20443;-67
2024/04/14 09:29:03;;;;;;;3.47;1.30;;;19.70;99.90;;;;;;5490237;26;20237;-66
2024/04/14 09:31:31;;;;;;;2.57;1.00;;;19.50;99.90;;;;;;5490281;26;20451;-67
2024/04/14 09:33:57;;;;;;;2.43;1.33;;;19.60;99.90;;;;;;5490165;26;20233;-67
2024/04/14 09:36:26;;;;;;;1.37;0.80;;;19.70;99.90;;;;;;5490237;26;20462;-67
2024/04/14 09:38:53;;;;;;;2.83;1.03;;;19.70;99.90;;;;;;5490111;26;20249;-66
2024/04/14 09:41:21;;;;;;;1.60;1.10;;;19.80;99.90;;;;;;5489937;26;20580;-67
2024/04/14 09:43:50;;;;;;;3.77;1.20;;;19.80;99.90;;;;;;5489885;26;20896;-67
2024/04/14 09:46:19;;;;;;;2.27;0.90;;;19.60;99.90;;;;;;5489954;26;20572;-67
2024/04/14 09:48:45;;;;;;;4.53;1.00;;;19.60;99.90;;;;;;5489854;26;20438;-67
2024/04/14 09:51:16;;;;;;;1.37;0.90;;;19.30;99.20;;;;;;5489896;26;20515;-67
2024/04/14 09:53:42;;;;;;;2.40;1.13;;;19.30;99.50;;;;;;5489989;26;20240;-67
2024/04/14 09:56:11;;;;;;;3.20;0.90;;;19.10;99.30;;;;;;5489843;26;20784;-67
2024/04/14 09:58:37;;;;;;;2.60;0.80;;;18.90;99.10;;;;;;5489750;26;20210;-66
2024/04/14 10:01:13;;;;;;;1.40;0.80;;;19.00;99.00;;;;;;5489732;26;20478;-66
2024/04/14 10:03:40;;;;;;;2.93;1.10;;;19.10;98.70;;;;;;5489745;26;20499;-67
2024/04/14 10:06:10;;;;;;;1.10;1.00;;;19.10;98.50;;;;;;5489713;26;20486;-66
2024/04/14 10:08:35;;;;;;;2.47;1.00;;;19.20;97.60;;;;;;5489668;26;20438;-66
2024/04/14 10:11:04;;;;;;;3.87;1.37;;;19.20;96.80;;;;;;5489563;26;20767;-67
2024/04/14 10:13:29;;;;;;;4.50;1.10;;;19.40;96.10;;;;;;5489637;26;20226;-67
2024/04/14 10:15:59;;;;;;;2.13;1.00;;;19.20;91.80;;;;;;5489673;26;20502;-67
2024/04/14 10:18:28;;;;;;;4.77;1.20;;;19.20;90.20;;;;;;5489268;26;20247;-67
2024/04/14 10:20:58;;;;;;;2.40;1.00;;;19.10;87.70;;;;;;5489435;26;20439;-67
2024/04/14 10:23:25;;;;;;;4.70;1.20;;;19.10;86.70;;;;;;5489407;26;20778;-67
2024/04/14 10:25:53;;;;;;;1.13;0.80;;;19.10;84.40;;;;;;5489342;26;20497;-67
2024/04/14 10:28:20;;;;;;;4.40;0.77;;;19.00;83.60;;;;;;5489318;26;20447;-67
2024/04/14 10:30:49;;;;;;;2.13;0.70;;;18.80;82.40;;;;;;5489352;26;20455;-67
2024/04/14 10:33:21;;;;;;;2.90;1.10;;;18.90;83.80;;;;;;5487521;26;20443;-67
2024/04/14 10:36:03;;;;;;;1.97;0.80;;;18.80;83.10;;;;;;5489127;26;20503;-66
2024/04/14 10:38:30;;;;;;;2.93;0.83;;;18.70;84.40;;;;;;5489107;26;20491;-67
2024/04/14 10:40:58;;;;;;;2.40;0.70;;;18.70;86.10;;;;;;5489033;26;20443;-67
2024/04/14 10:43:24;;;;;;;5.27;0.80;;;18.80;86.00;;;;;;5488966;26;20458;-67
2024/04/14 10:45:52;;;;;;;2.27;1.03;;;18.70;86.00;;;;;;5488782;26;20500;-66
2024/04/14 10:48:18;;;;;;;1.30;0.97;;;18.70;87.30;;;;;;5488943;26;20447;-67
2024/04/14 10:50:47;;;;;;;1.87;1.03;;;18.60;87.20;;;;;;5488824;26;20503;-66
2024/04/14 10:53:15;;;;;;;2.50;1.00;;;18.70;88.10;;;;;;5488776;26;20704;-67
2024/04/14 10:55:43;;;;;;;3.27;1.30;;;18.70;88.40;;;;;;5488583;26;20579;-66
2024/04/14 10:58:09;;;;;;;4.50;0.90;;;18.70;87.90;;;;;;5488794;26;20475;-67
2024/04/14 11:00:37;;;;;;;1.70;1.13;;;18.60;88.10;;;;;;5488731;26;20447;-67
2024/04/14 11:03:04;;;;;;;3.00;0.90;;;18.70;86.70;;;;;;5488621;26;20502;-67
2024/04/14 11:05:34;;;;;;;3.80;1.43;;;18.80;87.70;;;;;;5488599;26;20528;-67
2024/04/14 11:08:00;;;;;;;2.50;0.87;;;18.90;84.90;;;;;;5488497;26;21018;-67
2024/04/14 11:10:31;;;;;;;1.83;1.10;;;18.70;84.60;;;;;;5488611;26;20451;-66
2024/04/14 11:12:57;;;;;;;1.63;0.70;;;18.60;85.80;;;;;;5488471;26;20446;-67
2024/04/14 11:15:27;;;;;;;1.83;0.90;;;18.70;85.90;;;;;;5488319;26;20451;-67
2024/04/14 11:17:53;;;;;;;2.07;0.97;;;18.70;87.60;;;;;;5488472;26;20458;-67
2024/04/14 11:20:21;;;;;;;2.00;0.87;;;18.80;87.00;;;;;;5488557;26;21029;-67
2024/04/14 11:22:47;;;;;;;2.53;1.10;;;18.80;85.00;;;;;;5488238;26;20495;-67
2024/04/14 11:25:15;;;;;;;1.07;0.97;;;18.70;84.90;;;;;;5488342;26;20962;-67
2024/04/14 11:27:44;;;;;;;2.07;0.83;;;18.70;80.50;;;;;;5488271;26;20252;-66
2024/04/14 11:30:12;;;;;;;3.03;1.73;;;18.70;78.80;;;;;;5488383;26;20451;-67
2024/04/14 11:32:39;;;;;;;3.47;1.07;;;18.60;77.30;;;;;;5487985;26;20447;-66
2024/04/14 11:35:09;;;;;;;6.23;0.83;;;18.60;78.90;;;;;;5488046;26;20852;-66
2024/04/14 11:37:36;;;;;;;4.30;0.80;;;18.70;80.00;;;;;;5488050;26;20487;-67
2024/04/14 11:40:04;;;;;;;1.80;1.70;;;18.80;79.10;;;;;;5488394;26;20496;-66
2024/04/14 11:42:31;;;;;;;2.27;1.10;;;18.70;80.20;;;;;;5487878;26;21006;-66
2024/04/14 11:45:02;;;;;;;1.70;1.17;;;18.70;81.30;;;;;;5489524;26;20502;-67
2024/04/14 11:47:28;;;;;;;2.57;0.90;;;18.50;77.70;;;;;;5491721;26;20450;-67
2024/04/14 11:49:57;;;;;;;2.87;1.03;;;18.50;79.50;;;;;;5491619;26;20447;-67
2024/04/14 11:52:22;;;;;;;4.87;1.00;;;18.80;78.00;;;;;;5491634;26;20832;-66
2024/04/14 11:54:50;;;;;;;1.87;1.53;;;18.80;75.90;;;;;;5491479;26;20466;-67
2024/04/14 11:57:16;;;;;;;6.10;1.30;;;18.80;76.90;;;;;;5491571;26;20206;-67
2024/04/14 11:59:44;;;;;;;2.63;0.93;;;18.80;75.90;;;;;;5491518;26;20521;-67
2024/04/14 12:02:13;;;;;;;4.10;1.17;;;18.70;71.70;;;;;;5491511;26;20206;-66
2024/04/14 12:04:41;;;;;;;1.20;1.00;;;18.70;72.00;;;;;;5491519;26;20439;-67
2024/04/14 12:07:06;;;;;;;2.13;0.80;;;18.60;68.20;;;;;;5491321;26;20479;-67
2024/04/14 12:09:34;;;;;;;2.33;0.93;;;18.50;68.10;;;;;;5491444;26;20806;-67
2024/04/14 12:12:00;;;;;;;3.17;0.87;;;18.60;65.70;;;;;;5491283;26;20298;-67
2024/04/14 12:14:28;;;;;;;4.23;1.10;;;18.70;63.90;;;;;;5491375;26;20459;-67
2024/04/14 12:16:56;;;;;;;2.47;0.90;;;18.70;61.40;;;;;;5491284;26;20210;-67
2024/04/14 12:19:27;;;;;;;2.60;0.93;;;18.80;64.10;;;;;;5491284;26;20439;-67
2024/04/14 12:21:52;;;;;;;2.60;0.90;;;18.90;62.70;;;;;;5491232;26;20463;-66
2024/04/14 12:24:21;;;;;;;1.60;0.80;;;19.00;62.70;;;;;;5491403;26;20502;-67
2024/04/14 12:26:46;;;;;;;2.07;0.80;;;19.00;64.50;;;;;;5491242;26;20232;-67
2024/04/14 12:29:14;;;;;;;2.20;1.30;;;19.10;64.70;;;;;;5491036;26;20923;-67
2024/04/14 12:31:40;;;;;;;2.20;1.00;;;19.10;65.00;;;;;;5490970;26;20210;-67
2024/04/14 12:34:09;;;;;;;2.60;1.23;;;19.30;66.20;;;;;;5491123;26;21018;-67
2024/04/14 12:36:37;;;;;;;1.90;0.90;;;19.30;65.60;;;;;;5490969;26;20257;-67
2024/04/14 12:39:06;;;;;;;2.80;1.40;;;19.20;66.20;;;;;;5491208;26;20494;-67
2024/04/14 12:41:31;;;;;;;3.77;1.00;;;19.40;65.90;;;;;;5490948;26;20443;-67
2024/04/14 12:43:59;;;;;;;3.00;0.90;;;19.30;66.90;;;;;;5490888;26;20564;-67
2024/04/14 12:46:25;;;;;;;3.00;1.00;;;19.20;64.60;;;;;;5490898;26;20248;-67
2024/04/14 12:48:53;;;;;;;1.83;0.73;;;19.20;63.20;;;;;;5490748;26;20458;-67